createdAt,value
2023-05-25T00:01:04.747Z,16.17
2023-05-25T00:03:34.304Z,10.50
2023-05-25T00:06:02.254Z,14.75
2023-05-25T00:08:29.741Z,19.38
2023-05-25T00:10:56.392Z,17.90
2023-05-25T00:13:22.903Z,15.95
2023-05-25T00:15:49.573Z,18.70
2023-05-25T00:18:16.329Z,14.35
2023-05-25T00:20:44.895Z,10.60
2023-05-25T00:23:11.651Z,14.05
2023-05-25T00:25:38.352Z,19.02
2023-05-25T00:28:05.330Z,16.58
2023-05-25T00:30:31.979Z,15.60
2023-05-25T00:33:00.152Z,13.38
2023-05-25T00:35:26.843Z,19.92
2023-05-25T00:37:53.507Z,19.38
2023-05-25T00:40:20.526Z,15.73
2023-05-25T00:42:47.486Z,17.45
2023-05-25T00:45:14.385Z,24.98
2023-05-25T00:47:41.611Z,15.73
2023-05-25T00:50:10.764Z,15.07
2023-05-25T00:52:37.406Z,16.33
2023-05-25T00:55:06.716Z,22.95
2023-05-25T00:57:34.316Z,21.40
2023-05-25T01:00:03.317Z,30.13
2023-05-25T01:02:31.121Z,19.38
2023-05-25T01:05:01.037Z,17.00
2023-05-25T01:07:31.115Z,18.73
2023-05-25T01:10:00.121Z,16.98
2023-05-25T01:12:29.737Z,17.10
2023-05-25T01:14:57.222Z,21.98
2023-05-25T01:17:23.892Z,17.15
2023-05-25T01:20:09.045Z,20.58
2023-05-25T01:23:04.546Z,19.50
2023-05-25T01:25:36.817Z,15.60
2023-05-25T01:28:14.644Z,16.95
2023-05-25T01:30:43.281Z,21.30
2023-05-25T01:33:10.933Z,18.80
2023-05-25T01:35:39.359Z,21.80
2023-05-25T01:38:06.058Z,25.17
2023-05-25T01:40:32.650Z,22.00
2023-05-25T01:42:59.449Z,21.83
2023-05-25T01:45:26.845Z,23.60
2023-05-25T01:48:12.966Z,21.30
2023-05-25T01:50:42.119Z,23.98
2023-05-25T01:53:16.524Z,24.45
2023-05-25T01:56:02.619Z,24.95
2023-05-25T01:58:35.589Z,26.40
2023-05-25T02:01:02.788Z,23.27
2023-05-25T02:03:29.421Z,24.73
2023-05-25T02:05:57.992Z,24.17
2023-05-25T02:08:24.695Z,26.83
2023-05-25T02:10:51.251Z,27.48
2023-05-25T02:13:17.912Z,27.88
2023-05-25T02:15:44.711Z,26.83
2023-05-25T02:18:13.678Z,26.90
2023-05-25T02:20:40.626Z,24.95
2023-05-25T02:23:07.632Z,27.50
2023-05-25T02:25:34.253Z,30.83
2023-05-25T02:28:01.157Z,30.83
2023-05-25T02:30:28.152Z,31.40
2023-05-25T02:32:55.026Z,30.42
2023-05-25T02:35:21.651Z,39.53
2023-05-25T02:37:50.910Z,31.55
2023-05-25T02:40:17.938Z,28.45
2023-05-25T02:42:44.472Z,32.60
2023-05-25T02:45:12.552Z,31.02
2023-05-25T02:47:41.358Z,38.35
2023-05-25T02:50:08.488Z,33.40
2023-05-25T02:52:35.483Z,30.77
2023-05-25T02:55:03.523Z,30.70
2023-05-25T02:57:30.394Z,32.60
2023-05-25T02:59:57.000Z,33.05
2023-05-25T03:02:25.698Z,33.28
2023-05-25T03:04:53.979Z,31.35
2023-05-25T03:07:26.547Z,35.53
2023-05-25T03:09:53.084Z,32.63
2023-05-25T03:12:19.590Z,29.15
2023-05-25T03:14:46.168Z,28.27
2023-05-25T03:17:13.041Z,30.73
2023-05-25T03:19:39.651Z,31.92
2023-05-25T03:22:06.105Z,29.05
2023-05-25T03:24:32.627Z,29.75
2023-05-25T03:26:59.311Z,32.92
2023-05-25T03:29:27.254Z,32.15
2023-05-25T03:31:53.824Z,33.80
2023-05-25T03:34:20.340Z,34.20
2023-05-25T03:36:47.531Z,32.67
2023-05-25T03:39:14.018Z,33.42
2023-05-25T03:41:40.602Z,33.35
2023-05-25T03:44:07.142Z,31.35
2023-05-25T03:46:33.766Z,30.58
2023-05-25T03:49:00.763Z,30.90
2023-05-25T03:51:29.936Z,31.90
2023-05-25T03:53:56.441Z,31.42
2023-05-25T03:56:23.240Z,30.10
2023-05-25T03:58:49.843Z,32.80
2023-05-25T04:01:16.689Z,31.95
2023-05-25T04:03:43.252Z,29.58
2023-05-25T04:06:09.949Z,34.88
2023-05-25T04:08:36.513Z,31.02
2023-05-25T04:11:03.016Z,34.08
2023-05-25T04:13:29.691Z,32.83
2023-05-25T04:15:56.332Z,35.33
2023-05-25T04:18:22.893Z,36.90
2023-05-25T04:20:49.498Z,37.83
2023-05-25T04:23:18.368Z,36.35
2023-05-25T04:25:45.534Z,36.10
2023-05-25T04:28:12.755Z,40.58
2023-05-25T04:30:39.743Z,37.45
2023-05-25T04:33:07.130Z,39.03
2023-05-25T04:35:33.804Z,37.13
2023-05-25T04:38:02.984Z,37.78
2023-05-25T04:40:30.223Z,38.65
2023-05-25T04:42:57.110Z,39.55
2023-05-25T04:45:24.033Z,43.65
2023-05-25T04:47:51.019Z,48.30
2023-05-25T04:50:17.854Z,46.85
2023-05-25T04:52:44.512Z,45.25
2023-05-25T04:55:11.313Z,44.38
2023-05-25T04:57:37.774Z,41.80
2023-05-25T05:00:06.287Z,42.35
2023-05-25T05:02:33.629Z,42.97
2023-05-25T05:05:00.285Z,40.17
2023-05-25T05:07:27.367Z,40.75
2023-05-25T05:09:53.916Z,37.53
2023-05-25T05:12:21.038Z,37.35
2023-05-25T05:14:47.572Z,36.25
2023-05-25T05:17:14.137Z,34.15
2023-05-25T05:19:40.698Z,27.58
2023-05-25T05:22:08.650Z,27.42
2023-05-25T05:24:35.600Z,24.75
2023-05-25T05:27:04.693Z,27.05
2023-05-25T05:29:31.910Z,24.88
2023-05-25T05:32:00.164Z,21.30
2023-05-25T05:34:27.069Z,23.00
2023-05-25T05:36:58.470Z,20.65
2023-05-25T05:39:25.786Z,21.95
2023-05-25T05:41:52.322Z,17.23
2023-05-25T05:44:20.629Z,17.80
2023-05-25T05:46:47.273Z,19.58
2023-05-25T05:49:13.980Z,22.15
2023-05-25T05:51:40.772Z,22.52
2023-05-25T05:54:07.344Z,16.67
2023-05-25T05:56:33.811Z,16.33
2023-05-25T05:59:00.445Z,18.38
2023-05-25T06:01:27.124Z,11.10
2023-05-25T06:03:54.576Z,18.40
2023-05-25T06:06:21.714Z,12.82
2023-05-25T06:08:48.708Z,12.95
2023-05-25T06:11:15.950Z,12.45
2023-05-25T06:13:42.596Z,14.88
2023-05-25T06:16:12.254Z,11.43
2023-05-25T06:18:38.930Z,16.30
2023-05-25T06:21:06.273Z,13.63
2023-05-25T06:23:35.145Z,10.65
2023-05-25T06:26:06.274Z,13.85
2023-05-25T06:28:33.187Z,11.85
2023-05-25T06:30:59.841Z,11.18
2023-05-25T06:33:26.471Z,15.18
2023-05-25T06:35:58.162Z,7.35
2023-05-25T06:38:24.838Z,15.77
2023-05-25T06:40:51.459Z,8.18
2023-05-25T06:43:19.804Z,11.02
2023-05-25T06:45:46.754Z,10.07
2023-05-25T06:48:14.067Z,11.30
2023-05-25T06:50:40.786Z,10.25
2023-05-25T06:53:07.504Z,9.88
2023-05-25T06:55:34.064Z,11.73
2023-05-25T06:58:00.533Z,12.43
2023-05-25T07:00:27.189Z,8.50
2023-05-25T07:02:53.949Z,11.45
2023-05-25T07:05:20.603Z,10.13
2023-05-25T07:07:47.186Z,7.47
2023-05-25T07:10:14.916Z,7.45
2023-05-25T07:12:42.613Z,9.07
2023-05-25T07:15:10.043Z,10.55
2023-05-25T07:17:36.694Z,11.68
2023-05-25T07:20:04.775Z,10.82
2023-05-25T07:22:31.379Z,12.63
2023-05-25T07:24:58.563Z,14.18
2023-05-25T07:27:26.185Z,9.32
2023-05-25T07:29:52.671Z,9.32
2023-05-25T07:32:19.192Z,7.60
2023-05-25T07:34:45.794Z,9.93
2023-05-25T07:37:12.451Z,12.27
2023-05-25T07:39:40.894Z,9.68
2023-05-25T07:42:07.590Z,6.18
2023-05-25T07:44:34.616Z,9.95
2023-05-25T07:47:01.163Z,11.27
2023-05-25T07:49:28.047Z,11.27
2023-05-25T07:51:54.562Z,8.35
2023-05-25T07:54:21.035Z,9.15
2023-05-25T07:56:47.596Z,10.18
2023-05-25T07:59:14.398Z,6.50
2023-05-25T08:01:41.069Z,9.60
2023-05-25T08:04:07.796Z,10.77
2023-05-25T08:06:34.480Z,8.98
2023-05-25T08:09:01.158Z,10.75
2023-05-25T08:11:27.866Z,10.25
2023-05-25T08:13:54.487Z,10.07
2023-05-25T08:16:21.033Z,10.88
2023-05-25T08:18:47.810Z,11.77
2023-05-25T08:21:14.601Z,12.70
2023-05-25T08:23:42.778Z,11.15
2023-05-25T08:26:29.076Z,11.90
2023-05-25T08:28:58.148Z,9.98
2023-05-25T08:31:24.932Z,7.53
2023-05-25T08:33:51.429Z,8.23
2023-05-25T08:36:17.925Z,10.65
2023-05-25T08:38:45.991Z,10.77
2023-05-25T08:41:13.610Z,13.65
2023-05-25T08:43:43.261Z,11.43
2023-05-25T08:46:09.977Z,13.18
2023-05-25T08:48:41.671Z,10.07
2023-05-25T08:51:11.204Z,10.07
2023-05-25T08:53:41.551Z,7.75
2023-05-25T08:56:18.386Z,9.95
2023-05-25T08:58:57.893Z,10.65
2023-05-25T09:01:28.819Z,11.65
2023-05-25T09:03:57.516Z,9.35
2023-05-25T09:06:27.414Z,10.00
2023-05-25T09:08:54.756Z,10.00
2023-05-25T09:11:36.061Z,8.55
2023-05-25T09:14:07.738Z,15.13
2023-05-25T09:16:37.076Z,10.20
2023-05-25T09:19:03.615Z,9.18
2023-05-25T09:21:30.267Z,7.07
2023-05-25T09:23:56.824Z,9.80
2023-05-25T09:26:23.298Z,8.73
2023-05-25T09:28:49.792Z,9.25
2023-05-25T09:31:16.756Z,14.35
2023-05-25T09:33:43.982Z,10.90
2023-05-25T09:36:12.892Z,8.60
2023-05-25T09:38:40.482Z,9.43
2023-05-25T09:41:07.182Z,9.10
2023-05-25T09:46:06.118Z,8.00
2023-05-25T09:48:33.147Z,6.80
2023-05-25T09:51:00.126Z,8.10
2023-05-25T09:53:26.678Z,9.73
2023-05-25T09:55:54.488Z,7.35
2023-05-25T09:58:24.821Z,7.78
2023-05-25T10:00:54.778Z,7.53
2023-05-25T10:03:21.867Z,10.23
2023-05-25T10:05:49.972Z,9.80
2023-05-25T10:08:20.072Z,9.38
2023-05-25T10:10:49.915Z,12.98
2023-05-25T10:13:22.473Z,10.98
2023-05-25T10:15:53.506Z,10.25
2023-05-25T10:18:28.086Z,7.30
2023-05-25T10:21:06.443Z,8.38
2023-05-25T10:23:43.075Z,8.07
2023-05-25T10:26:13.600Z,8.82
2023-05-25T10:28:43.335Z,8.60
2023-05-25T10:31:10.788Z,8.50
2023-05-25T10:33:37.572Z,10.30
2023-05-25T10:36:10.831Z,3.80
2023-05-25T10:38:40.132Z,10.02
2023-05-25T10:41:09.524Z,7.55
2023-05-25T10:43:37.743Z,5.03
2023-05-25T10:46:07.876Z,6.35
2023-05-25T10:48:38.928Z,8.23
2023-05-25T10:51:08.851Z,5.88
2023-05-25T10:53:36.828Z,7.07
2023-05-25T10:56:10.816Z,7.10
2023-05-25T10:58:42.798Z,11.63
2023-05-25T11:01:11.777Z,11.38
2023-05-25T11:03:45.219Z,7.10
2023-05-25T11:06:13.949Z,8.88
2023-05-25T11:09:00.231Z,10.68
2023-05-25T11:11:41.999Z,6.32
2023-05-25T11:14:27.746Z,7.40
2023-05-25T11:17:14.493Z,10.00
2023-05-25T11:19:43.421Z,9.02
2023-05-25T11:22:35.461Z,7.53
2023-05-25T11:25:03.903Z,11.02
2023-05-25T11:27:32.921Z,10.20
2023-05-25T11:30:00.045Z,9.15
2023-05-25T11:32:27.175Z,11.20
2023-05-25T11:34:54.809Z,11.15
2023-05-25T11:37:25.324Z,7.78
2023-05-25T11:39:52.569Z,9.05
2023-05-25T11:42:24.455Z,8.00
2023-05-25T11:44:51.372Z,21.85
2023-05-25T11:47:23.086Z,11.13
2023-05-25T11:49:50.142Z,9.57
2023-05-25T11:52:18.230Z,9.50
2023-05-25T11:54:46.936Z,9.35
2023-05-25T11:57:25.387Z,4.22
2023-05-25T12:00:02.045Z,6.28
2023-05-25T12:02:37.911Z,5.60
2023-05-25T12:05:05.324Z,8.00
2023-05-25T12:07:32.245Z,6.32
2023-05-25T12:10:09.953Z,6.35
2023-05-25T12:12:47.023Z,4.78
2023-05-25T12:15:21.701Z,6.88
2023-05-25T12:17:52.105Z,8.07
2023-05-25T12:20:20.757Z,12.18
2023-05-25T12:22:49.298Z,12.52
2023-05-25T12:25:21.010Z,8.90
2023-05-25T12:27:47.646Z,11.73
2023-05-25T12:30:14.304Z,6.75
2023-05-25T12:32:55.586Z,6.28
2023-05-25T12:35:22.376Z,8.93
2023-05-25T12:37:49.591Z,6.20
2023-05-25T12:40:20.837Z,7.40
2023-05-25T12:42:56.398Z,7.82
2023-05-25T12:45:23.011Z,12.02
2023-05-25T12:47:50.198Z,12.32
2023-05-25T12:50:17.981Z,13.43
2023-05-25T12:52:46.956Z,13.43
2023-05-25T12:55:21.060Z,14.90
2023-05-25T12:57:52.643Z,8.20
2023-05-25T13:00:23.980Z,9.70
2023-05-25T13:02:51.726Z,9.30
2023-05-25T13:05:26.880Z,9.43
2023-05-25T13:07:58.215Z,8.05
2023-05-25T13:10:26.176Z,10.30
2023-05-25T13:12:54.036Z,6.03
2023-05-25T13:15:21.673Z,9.80
2023-05-25T13:17:52.727Z,8.15
2023-05-25T13:20:21.566Z,9.98
2023-05-25T13:22:50.256Z,8.85
2023-05-25T13:25:17.263Z,15.57
2023-05-25T13:27:51.645Z,8.45
2023-05-25T13:30:18.898Z,11.20
2023-05-25T13:32:46.211Z,8.65
2023-05-25T13:35:37.508Z,10.75
2023-05-25T13:38:05.006Z,8.63
2023-05-25T13:40:31.676Z,9.05
2023-05-25T13:42:58.306Z,7.55
2023-05-25T13:45:26.005Z,10.68
2023-05-25T13:47:52.869Z,7.00
2023-05-25T13:50:20.122Z,9.20
2023-05-25T13:52:47.014Z,12.82
2023-05-25T13:55:15.260Z,6.97
2023-05-25T13:57:42.224Z,5.45
2023-05-25T14:00:09.464Z,7.93
2023-05-25T14:02:36.694Z,10.73
2023-05-25T14:05:03.588Z,5.97
2023-05-25T14:07:30.113Z,11.05
2023-05-25T14:09:58.213Z,6.93
2023-05-25T14:12:26.267Z,10.05
2023-05-25T14:14:52.759Z,8.07
2023-05-25T14:17:19.701Z,7.88
2023-05-25T14:19:46.503Z,11.77
2023-05-25T14:22:14.446Z,12.38
2023-05-25T14:24:41.558Z,11.57
2023-05-25T14:27:08.414Z,15.40
2023-05-25T14:29:35.035Z,9.57
2023-05-25T14:32:01.829Z,10.90
2023-05-25T14:34:31.348Z,8.05
